createdAt,value
2018-09-19T00:01:25.747Z,20.76
2018-09-19T00:03:54.212Z,20.74
2018-09-19T00:06:22.865Z,20.71
2018-09-19T00:08:51.191Z,20.69
2018-09-19T00:11:19.560Z,20.61
2018-09-19T00:13:48.023Z,20.55
2018-09-19T00:16:16.739Z,20.43
2018-09-19T00:18:45.026Z,20.35
2018-09-19T00:21:13.343Z,20.30
2018-09-19T00:23:41.707Z,20.28
2018-09-19T00:26:10.161Z,20.26
2018-09-19T00:28:39.003Z,20.26
2018-09-19T00:31:07.291Z,20.28
2018-09-19T00:33:35.724Z,20.34
2018-09-19T00:36:04.932Z,20.36
2018-09-19T00:38:33.320Z,20.36
2018-09-19T00:41:01.467Z,20.38
2018-09-19T00:43:29.952Z,20.35
2018-09-19T00:45:58.260Z,20.28
2018-09-19T00:48:26.729Z,20.19
2018-09-19T00:50:55.233Z,20.09
2018-09-19T00:53:23.881Z,20.07
2018-09-19T00:55:51.987Z,20.06
2018-09-19T00:58:20.111Z,20.04
2018-09-19T01:00:48.771Z,20.02
2018-09-19T01:03:17.226Z,19.98
2018-09-19T01:05:45.569Z,19.98
2018-09-19T01:08:13.901Z,19.98
2018-09-19T01:10:43.895Z,19.94
2018-09-19T01:13:13.039Z,19.88
2018-09-19T01:15:41.172Z,19.86
2018-09-19T01:18:09.488Z,19.85
2018-09-19T01:20:37.631Z,19.90
2018-09-19T01:23:06.945Z,19.95
2018-09-19T01:25:35.283Z,19.99
2018-09-19T01:28:03.740Z,20.03
2018-09-19T01:30:31.891Z,20.02
2018-09-19T01:33:00.611Z,20.01
2018-09-19T01:35:28.949Z,19.99
2018-09-19T01:37:57.408Z,19.96
2018-09-19T01:40:27.286Z,19.93
2018-09-19T01:42:55.821Z,19.93
2018-09-19T01:45:24.144Z,19.93
2018-09-19T01:47:52.520Z,19.92
2018-09-19T01:50:21.154Z,19.89
2018-09-19T01:52:49.450Z,19.89
2018-09-19T01:55:18.184Z,19.89
2018-09-19T01:57:47.205Z,19.91
2018-09-19T02:00:15.400Z,19.94
2018-09-19T02:02:43.828Z,19.94
2018-09-19T02:05:12.599Z,19.91
2018-09-19T02:07:41.040Z,19.90
2018-09-19T02:10:09.684Z,19.88
2018-09-19T02:12:38.343Z,19.86
2018-09-19T02:15:06.577Z,19.83
2018-09-19T02:17:34.869Z,19.79
2018-09-19T02:20:03.803Z,19.76
2018-09-19T02:22:32.382Z,19.71
2018-09-19T02:25:00.494Z,19.61
2018-09-19T02:27:29.140Z,19.55
2018-09-19T02:29:57.809Z,19.52
2018-09-19T02:32:25.959Z,19.47
2018-09-19T02:34:54.207Z,19.46
2018-09-19T02:37:22.874Z,19.44
2018-09-19T02:39:51.554Z,19.44
2018-09-19T02:42:19.888Z,19.45
2018-09-19T02:44:48.245Z,19.45
2018-09-19T02:47:16.724Z,19.48
2018-09-19T02:49:44.931Z,19.48
2018-09-19T02:52:13.058Z,19.48
2018-09-19T02:54:41.909Z,19.46
2018-09-19T02:57:10.649Z,19.39
2018-09-19T02:59:39.372Z,19.35
2018-09-19T03:02:07.672Z,19.31
2018-09-19T03:04:35.988Z,19.26
2018-09-19T03:07:05.003Z,19.26
2018-09-19T03:09:33.893Z,19.28
2018-09-19T03:12:02.872Z,19.27
2018-09-19T03:14:31.047Z,19.23
2018-09-19T03:16:59.517Z,19.21
2018-09-19T03:19:27.674Z,19.20
2018-09-19T03:21:56.106Z,19.12
2018-09-19T03:24:24.537Z,19.02
2018-09-19T03:26:52.970Z,18.97
2018-09-19T03:29:21.627Z,18.92
2018-09-19T03:31:49.795Z,18.82
2018-09-19T03:34:18.458Z,18.77
2018-09-19T03:36:46.613Z,18.75
2018-09-19T03:39:14.936Z,18.73
2018-09-19T03:41:43.109Z,18.75
2018-09-19T03:44:16.342Z,18.77
2018-09-19T03:46:44.456Z,18.73
2018-09-19T03:49:12.566Z,18.68
2018-09-19T03:51:40.877Z,18.61
2018-09-19T03:54:09.435Z,18.56
2018-09-19T03:56:38.194Z,18.52
2018-09-19T03:59:06.322Z,18.50
2018-09-19T04:01:34.974Z,18.49
2018-09-19T04:04:03.568Z,18.49
2018-09-19T04:06:32.595Z,18.50
2018-09-19T04:09:01.569Z,18.49
2018-09-19T04:11:30.209Z,18.48
2018-09-19T04:13:58.712Z,18.45
2018-09-19T04:16:27.447Z,18.41
2018-09-19T04:18:56.112Z,18.35
2018-09-19T04:21:24.492Z,18.28
2018-09-19T04:23:58.016Z,18.21
2018-09-19T04:26:28.264Z,18.15
2018-09-19T04:28:58.924Z,18.05
2018-09-19T04:31:28.774Z,17.95
2018-09-19T04:34:08.468Z,17.87
2018-09-19T04:36:36.615Z,17.80
2018-09-19T04:39:07.596Z,17.75
2018-09-19T04:41:36.307Z,17.75
2018-09-19T04:44:05.986Z,17.76
2018-09-19T04:46:34.655Z,17.78
2018-09-19T04:49:03.437Z,17.83
2018-09-19T04:51:31.773Z,17.89
2018-09-19T04:54:00.024Z,17.97
2018-09-19T04:56:28.895Z,18.02
2018-09-19T04:58:57.725Z,18.04
2018-09-19T05:01:26.295Z,18.06
2018-09-19T05:03:54.567Z,18.06
2018-09-19T05:06:23.031Z,18.03
2018-09-19T05:08:51.482Z,17.97
2018-09-19T05:11:19.923Z,17.91
2018-09-19T05:13:48.677Z,17.86
2018-09-19T05:16:16.927Z,17.78
2018-09-19T05:18:45.569Z,17.67
2018-09-19T05:21:13.895Z,17.56
2018-09-19T05:23:42.532Z,17.51
2018-09-19T05:26:10.931Z,17.49
2018-09-19T05:28:39.158Z,17.48
2018-09-19T05:31:08.400Z,17.45
2018-09-19T05:33:36.550Z,17.38
2018-09-19T05:36:04.721Z,17.33
2018-09-19T05:38:33.089Z,17.33
2018-09-19T05:41:01.824Z,17.39
2018-09-19T05:43:29.943Z,17.49
2018-09-19T05:45:58.415Z,17.53
2018-09-19T05:48:26.748Z,17.55
2018-09-19T05:50:55.296Z,17.58
2018-09-19T05:53:23.791Z,17.64
2018-09-19T05:55:52.132Z,17.72
2018-09-19T05:58:20.241Z,17.79
2018-09-19T06:00:48.583Z,17.83
2018-09-19T06:03:17.057Z,17.91
2018-09-19T06:05:45.411Z,17.99
2018-09-19T06:08:13.740Z,18.01
2018-09-19T06:10:42.220Z,17.97
2018-09-19T06:13:10.632Z,17.93
2018-09-19T06:15:38.832Z,17.89
2018-09-19T06:18:07.528Z,17.91
2018-09-19T06:20:36.007Z,17.99
2018-09-19T06:23:04.478Z,18.13
2018-09-19T06:25:32.869Z,18.25
2018-09-19T06:28:01.199Z,18.29
2018-09-19T06:30:29.684Z,18.33
2018-09-19T06:32:58.209Z,18.36
2018-09-19T06:35:26.809Z,18.42
2018-09-19T06:37:55.205Z,18.50
2018-09-19T06:40:23.667Z,18.62
2018-09-19T06:42:52.313Z,18.75
2018-09-19T06:45:21.059Z,18.92
2018-09-19T06:47:50.115Z,19.14
2018-09-19T06:50:18.682Z,19.32
2018-09-19T06:52:47.004Z,19.53
2018-09-19T06:55:15.938Z,19.74
2018-09-19T06:57:44.082Z,19.94
2018-09-19T07:00:12.885Z,20.08
2018-09-19T07:02:41.292Z,20.21
2018-09-19T07:05:09.465Z,20.39
2018-09-19T07:07:38.084Z,20.59
2018-09-19T07:10:06.277Z,20.75
2018-09-19T07:12:34.956Z,20.94
2018-09-19T07:15:04.093Z,21.09
2018-09-19T07:17:32.224Z,21.20
2018-09-19T07:20:00.355Z,21.29
2018-09-19T07:22:29.247Z,21.38
2018-09-19T07:24:57.549Z,21.51
2018-09-19T07:27:26.541Z,21.64
2018-09-19T07:32:22.645Z,22.03
2018-09-19T07:34:50.811Z,22.18
2018-09-19T07:37:18.948Z,22.30
2018-09-19T07:39:47.919Z,22.42
2018-09-19T07:42:16.255Z,22.56
2018-09-19T07:44:44.463Z,22.64
2018-09-19T07:47:12.872Z,22.66
2018-09-19T07:49:41.767Z,22.72
2018-09-19T07:52:10.143Z,22.84
2018-09-19T07:54:38.662Z,22.98
2018-09-19T07:57:07.320Z,23.06
2018-09-19T07:59:35.440Z,23.12
2018-09-19T08:02:03.895Z,23.18
2018-09-19T08:04:32.047Z,23.34
2018-09-19T08:07:00.167Z,23.53
2018-09-19T08:09:28.501Z,23.64
2018-09-19T08:11:56.854Z,23.67
2018-09-19T08:14:25.319Z,23.77
2018-09-19T08:16:53.498Z,23.89
2018-09-19T08:19:22.117Z,23.91
2018-09-19T08:21:50.702Z,23.96
2018-09-19T08:24:19.030Z,23.97
2018-09-19T08:27:00.836Z,23.99
2018-09-19T08:29:32.050Z,24.08
2018-09-19T08:32:00.155Z,24.18
2018-09-19T08:34:28.520Z,24.36
2018-09-19T08:36:56.956Z,24.46
2018-09-19T08:39:25.791Z,24.56
2018-09-19T08:41:54.613Z,24.62
2018-09-19T08:44:22.814Z,24.69
2018-09-19T08:46:51.148Z,24.80
2018-09-19T08:49:19.620Z,24.88
2018-09-19T08:51:48.281Z,24.98
2018-09-19T08:54:17.333Z,25.10
2018-09-19T08:56:45.812Z,25.21
2018-09-19T08:59:14.361Z,25.33
2018-09-19T09:01:42.500Z,25.50
2018-09-19T09:04:10.628Z,25.65
2018-09-19T09:06:38.995Z,25.80
2018-09-19T09:09:08.000Z,25.90
2018-09-19T09:11:36.802Z,25.98
2018-09-19T09:14:05.367Z,26.06
2018-09-19T09:16:33.964Z,26.13
2018-09-19T09:19:02.555Z,26.19
2018-09-19T09:21:31.082Z,26.24
2018-09-19T09:23:59.828Z,26.29
2018-09-19T09:26:28.571Z,26.23
2018-09-19T09:28:56.941Z,26.24
2018-09-19T09:31:25.292Z,26.32
2018-09-19T09:33:53.663Z,26.57
2018-09-19T09:36:22.197Z,26.84
2018-09-19T09:38:50.563Z,26.97
2018-09-19T09:41:18.723Z,27.01
2018-09-19T09:43:47.092Z,27.19
2018-09-19T09:46:15.992Z,27.30
2018-09-19T09:48:44.675Z,27.33
2018-09-19T09:51:12.911Z,27.39
2018-09-19T09:53:41.600Z,27.41
2018-09-19T09:56:09.940Z,27.35
2018-09-19T09:58:38.263Z,27.32
2018-09-19T10:01:06.895Z,27.36
2018-09-19T10:03:35.346Z,27.65
2018-09-19T10:06:04.102Z,27.87
2018-09-19T10:08:32.843Z,27.83
2018-09-19T10:11:01.056Z,27.68
2018-09-19T10:13:29.524Z,27.51
2018-09-19T10:15:58.038Z,27.62
2018-09-19T10:18:26.684Z,27.72
2018-09-19T10:22:00.471Z,28.00
2018-09-19T10:24:28.930Z,28.22
2018-09-19T10:26:57.252Z,28.57
2018-09-19T10:29:25.966Z,28.79
2018-09-19T10:31:54.806Z,28.95
2018-09-19T10:34:22.926Z,29.15
2018-09-19T10:36:51.500Z,29.16
2018-09-19T10:39:20.188Z,29.31
2018-09-19T10:41:48.525Z,29.28
2018-09-19T10:44:16.647Z,29.35
2018-09-19T10:46:45.317Z,29.34
2018-09-19T10:49:13.768Z,29.20
2018-09-19T10:51:42.273Z,28.96
2018-09-19T10:54:10.381Z,28.84
2018-09-19T10:56:38.517Z,28.93
2018-09-19T10:59:07.168Z,29.24
2018-09-19T11:01:35.320Z,29.48
2018-09-19T11:04:03.701Z,29.47
2018-09-19T11:06:32.044Z,29.21
2018-09-19T11:09:00.369Z,28.98
2018-09-19T11:11:28.792Z,28.93
2018-09-19T11:13:56.916Z,28.86
2018-09-19T11:16:25.439Z,28.84
2018-09-19T11:18:54.352Z,28.83
2018-09-19T11:21:22.828Z,28.87
2018-09-19T11:23:50.972Z,29.08
2018-09-19T11:26:19.192Z,29.29
2018-09-19T11:28:47.575Z,29.33
2018-09-19T11:31:15.705Z,29.28
2018-09-19T11:33:44.237Z,29.25
2018-09-19T11:36:12.808Z,29.28
2018-09-19T11:38:41.163Z,29.20
2018-09-19T11:41:09.921Z,29.28
2018-09-19T11:43:39.017Z,29.22
2018-09-19T11:46:07.497Z,28.90
2018-09-19T11:48:35.663Z,28.62
2018-09-19T11:51:04.324Z,28.64
2018-09-19T11:53:32.456Z,28.72
2018-09-19T11:56:01.032Z,28.64
2018-09-19T11:58:30.316Z,28.52
2018-09-19T12:00:58.756Z,28.64
2018-09-19T12:03:27.569Z,28.75
2018-09-19T12:05:55.700Z,28.61
2018-09-19T12:08:24.064Z,28.59
2018-09-19T12:10:52.204Z,28.80
2018-09-19T12:13:20.333Z,29.17
2018-09-19T12:15:48.475Z,29.42
2018-09-19T12:18:17.025Z,29.41
2018-09-19T12:20:46.187Z,29.38
2018-09-19T12:23:14.331Z,29.28
2018-09-19T12:25:42.868Z,29.15
2018-09-19T12:28:11.017Z,29.10
2018-09-19T12:30:39.532Z,29.18
2018-09-19T12:33:08.189Z,29.14
2018-09-19T12:35:36.543Z,29.15
2018-09-19T12:38:05.212Z,29.20
2018-09-19T12:43:16.790Z,29.24
2018-09-19T12:45:45.440Z,29.29
2018-09-19T12:48:13.565Z,29.48
2018-09-19T12:50:42.016Z,29.81
2018-09-19T12:53:11.172Z,30.20
2018-09-19T12:55:39.440Z,30.52
2018-09-19T12:58:09.416Z,30.57
2018-09-19T13:00:38.113Z,30.53
2018-09-19T13:03:06.659Z,30.58
2018-09-19T13:05:35.114Z,30.58
2018-09-19T13:08:03.516Z,30.40
2018-09-19T13:10:32.283Z,30.20
2018-09-19T13:13:00.594Z,30.12
2018-09-19T13:15:28.756Z,30.12
2018-09-19T13:17:57.227Z,30.05
2018-09-19T13:20:25.739Z,29.97
2018-09-19T13:22:53.880Z,29.75
2018-09-19T13:25:22.440Z,29.86
2018-09-19T13:27:50.587Z,29.74
2018-09-19T13:30:18.856Z,29.51
2018-09-19T13:32:47.005Z,29.48
2018-09-19T13:35:15.429Z,29.50
2018-09-19T13:37:43.761Z,29.72
2018-09-19T13:40:12.540Z,29.87
2018-09-19T13:42:40.735Z,29.95
2018-09-19T13:45:09.389Z,30.06
2018-09-19T13:47:37.766Z,30.11
2018-09-19T13:50:22.104Z,30.07
2018-09-19T13:52:50.231Z,30.22
2018-09-19T13:55:18.699Z,30.32
2018-09-19T13:57:46.827Z,30.24
2018-09-19T14:00:14.964Z,30.15
2018-09-19T14:02:43.088Z,30.05
2018-09-19T14:05:11.610Z,29.97
2018-09-19T14:07:39.744Z,30.04
2018-09-19T14:10:08.116Z,30.11
2018-09-19T14:12:36.588Z,30.20
2018-09-19T14:15:05.122Z,30.23
2018-09-19T14:17:33.442Z,30.21
2018-09-19T14:20:01.561Z,30.22
2018-09-19T14:22:30.030Z,30.16
2018-09-19T14:24:58.151Z,30.06
2018-09-19T14:28:58.437Z,30.20
2018-09-19T14:31:27.157Z,30.25
2018-09-19T14:33:55.269Z,30.32
2018-09-19T14:36:23.828Z,30.29
2018-09-19T14:38:52.528Z,30.14
2018-09-19T14:41:21.161Z,30.04
2018-09-19T14:43:50.083Z,30.07
2018-09-19T14:46:18.477Z,29.98
2018-09-19T14:48:47.386Z,29.81
2018-09-19T14:51:16.517Z,29.73
2018-09-19T14:53:44.974Z,29.64
2018-09-19T14:56:13.441Z,29.75
2018-09-19T14:58:42.176Z,29.86
2018-09-19T15:01:10.628Z,29.96
2018-09-19T15:03:39.535Z,29.93
2018-09-19T15:06:08.321Z,29.81
2018-09-19T15:08:36.500Z,29.59
2018-09-19T15:11:04.969Z,29.43
2018-09-19T15:13:33.328Z,29.28
2018-09-19T15:16:01.912Z,29.33
2018-09-19T15:18:30.049Z,29.54
2018-09-19T15:20:58.724Z,29.68
2018-09-19T15:23:26.941Z,29.62
2018-09-19T15:25:55.129Z,29.59
2018-09-19T15:28:23.331Z,29.63
2018-09-19T15:30:52.352Z,29.68
2018-09-19T15:33:20.828Z,29.69
2018-09-19T15:35:49.525Z,29.67
2018-09-19T15:38:17.945Z,29.66
2018-09-19T15:40:46.266Z,29.78
2018-09-19T15:43:14.402Z,29.84
2018-09-19T15:45:43.111Z,29.81
2018-09-19T15:48:11.793Z,29.72
2018-09-19T15:50:40.782Z,29.67
2018-09-19T15:53:09.240Z,29.74
2018-09-19T15:55:37.701Z,29.84
2018-09-19T15:58:06.125Z,29.94
2018-09-19T16:00:34.725Z,30.05
2018-09-19T16:03:03.030Z,30.04
2018-09-19T16:05:31.501Z,29.95
2018-09-19T16:07:59.909Z,29.80
2018-09-19T16:10:28.499Z,29.68
2018-09-19T16:12:56.903Z,29.58
2018-09-19T16:15:25.500Z,29.50
2018-09-19T16:17:53.994Z,29.44
2018-09-19T16:20:22.508Z,29.41
2018-09-19T16:22:50.984Z,29.34
2018-09-19T16:25:19.469Z,29.27
2018-09-19T16:27:48.550Z,29.20
2018-09-19T16:30:17.003Z,29.09
2018-09-19T16:32:45.426Z,29.01
2018-09-19T16:35:13.920Z,28.95
2018-09-19T16:37:42.588Z,28.83
2018-09-19T16:40:11.341Z,28.65
2018-09-19T16:42:40.837Z,28.47
2018-09-19T16:45:09.476Z,28.38
2018-09-19T16:47:37.652Z,28.37
2018-09-19T16:50:06.125Z,28.33
2018-09-19T16:52:35.101Z,28.27
2018-09-19T16:55:03.422Z,28.22
2018-09-19T16:57:31.551Z,28.18
2018-09-19T17:00:00.556Z,28.13
2018-09-19T17:02:28.708Z,28.07
2018-09-19T17:04:57.215Z,28.06
2018-09-19T17:07:26.341Z,28.04
2018-09-19T17:09:54.983Z,27.99
2018-09-19T17:12:23.293Z,27.93
2018-09-19T17:14:51.780Z,27.89
2018-09-19T17:17:20.168Z,27.85
2018-09-19T17:19:48.675Z,27.82
2018-09-19T17:22:17.417Z,27.77
2018-09-19T17:24:45.777Z,27.72
2018-09-19T17:27:14.233Z,27.68
2018-09-19T17:29:42.990Z,27.63
2018-09-19T17:32:11.500Z,27.56
2018-09-19T17:34:39.976Z,27.47
2018-09-19T17:37:08.582Z,27.40
2018-09-19T17:39:37.700Z,27.32
2018-09-19T17:42:05.828Z,27.29
2018-09-19T17:44:34.255Z,27.23
2018-09-19T17:47:02.721Z,27.18
2018-09-19T17:49:31.669Z,27.15
2018-09-19T17:51:59.816Z,27.13
2018-09-19T17:54:27.941Z,27.07
2018-09-19T17:56:56.585Z,27.01
2018-09-19T17:59:25.253Z,26.94
2018-09-19T18:01:53.707Z,26.84
2018-09-19T18:04:22.121Z,26.78
2018-09-19T18:06:50.686Z,26.74
2018-09-19T18:09:19.340Z,26.68
2018-09-19T18:11:47.744Z,26.63
2018-09-19T18:14:16.532Z,26.57
2018-09-19T18:16:44.686Z,26.49
2018-09-19T18:19:13.084Z,26.43
2018-09-19T18:21:41.522Z,26.30
2018-09-19T18:24:09.701Z,26.29
2018-09-19T18:26:37.849Z,26.25
2018-09-19T18:29:06.740Z,26.21
2018-09-19T18:31:37.876Z,26.17
2018-09-19T18:34:14.820Z,26.16
2018-09-19T18:36:44.184Z,26.12
2018-09-19T18:39:12.336Z,26.07
2018-09-19T18:41:40.634Z,26.03
2018-09-19T18:44:09.543Z,25.97
2018-09-19T18:46:37.671Z,25.91
2018-09-19T18:49:06.285Z,25.82
2018-09-19T18:51:35.280Z,25.75
2018-09-19T18:54:03.801Z,25.66
2018-09-19T18:56:33.482Z,25.55
2018-09-19T18:59:11.811Z,25.42
2018-09-19T19:01:40.674Z,25.32
2018-09-19T19:04:09.888Z,25.25
2018-09-19T19:06:38.845Z,25.19
2018-09-19T19:09:08.154Z,25.15
2018-09-19T19:11:36.872Z,25.12
2018-09-19T19:14:05.841Z,25.05
2018-09-19T19:16:34.789Z,25.01
2018-09-19T19:19:03.248Z,24.97
2018-09-19T19:21:31.796Z,24.96
2018-09-19T19:24:00.290Z,24.93
2018-09-19T19:26:29.286Z,24.91
2018-09-19T19:28:57.444Z,24.89
2018-09-19T19:31:26.033Z,24.87
2018-09-19T19:33:54.424Z,24.85
2018-09-19T19:36:22.972Z,24.77
2018-09-19T19:38:51.451Z,24.74
2018-09-19T19:41:19.976Z,24.74
2018-09-19T19:43:48.471Z,24.70
2018-09-19T19:46:16.784Z,24.66
2018-09-19T19:48:44.940Z,24.62
2018-09-19T19:51:13.080Z,24.53
2018-09-19T19:53:41.540Z,24.45
2018-09-19T19:56:09.689Z,24.35
2018-09-19T19:58:37.965Z,24.30
2018-09-19T20:01:13.128Z,24.25
2018-09-19T20:03:42.529Z,24.21
2018-09-19T20:06:14.192Z,24.07
2018-09-19T20:08:43.541Z,23.93
2018-09-19T20:15:01.262Z,23.77
2018-09-19T20:17:40.753Z,23.69
2018-09-19T20:20:11.826Z,23.62
2018-09-19T20:22:40.460Z,23.58
2018-09-19T20:25:08.903Z,23.54
2018-09-19T20:27:37.869Z,23.53
2018-09-19T20:30:07.006Z,23.51
2018-09-19T20:32:36.207Z,23.50
2018-09-19T20:35:05.155Z,23.48
2018-09-19T20:37:34.276Z,23.44
2018-09-19T20:40:02.852Z,23.43
2018-09-19T20:42:31.497Z,23.41
2018-09-19T20:45:00.180Z,23.42
2018-09-19T20:47:28.925Z,23.42
2018-09-19T20:49:57.044Z,23.40
2018-09-19T20:52:25.538Z,23.33
2018-09-19T20:54:53.687Z,23.27
2018-09-19T20:57:21.814Z,23.22
2018-09-19T20:59:50.301Z,23.19
2018-09-19T21:02:18.897Z,23.15
2018-09-19T21:04:47.595Z,23.12
2018-09-19T21:07:15.836Z,23.11
2018-09-19T21:09:44.306Z,23.08
2018-09-19T21:12:13.023Z,23.04
2018-09-19T21:14:41.147Z,23.00
2018-09-19T21:17:09.568Z,22.96
2018-09-19T21:19:38.351Z,22.92
2018-09-19T21:22:06.671Z,22.90
2018-09-19T21:24:35.208Z,22.84
2018-09-19T21:27:03.937Z,22.78
2018-09-19T21:29:32.073Z,22.72
2018-09-19T21:32:00.224Z,22.68
2018-09-19T21:34:29.057Z,22.64
2018-09-19T21:36:57.635Z,22.60
2018-09-19T21:39:25.771Z,22.58
2018-09-19T21:41:54.208Z,22.52
2018-09-19T21:44:22.955Z,22.49
2018-09-19T21:46:51.101Z,22.48
2018-09-19T21:49:19.544Z,22.47
2018-09-19T21:51:47.969Z,22.47
2018-09-19T21:54:16.261Z,22.45
2018-09-19T21:56:44.735Z,22.43
2018-09-19T21:59:12.869Z,22.41
2018-09-19T22:01:41.508Z,22.38
2018-09-19T22:04:10.296Z,22.37
2018-09-19T22:06:39.129Z,22.34
2018-09-19T22:09:10.192Z,22.31
2018-09-19T22:11:38.980Z,22.23
2018-09-19T22:14:07.182Z,22.18
2018-09-19T22:16:35.554Z,22.14
2018-09-19T22:19:03.840Z,22.11
2018-09-19T22:21:32.352Z,22.05
2018-09-19T22:24:01.217Z,21.96
2018-09-19T22:26:29.877Z,21.91
2018-09-19T22:28:58.751Z,21.88
2018-09-19T22:31:27.430Z,21.85
2018-09-19T22:33:55.537Z,21.83
2018-09-19T22:36:23.696Z,21.79
2018-09-19T22:38:52.616Z,21.74
2018-09-19T22:41:21.500Z,21.71
2018-09-19T22:43:50.233Z,21.69
2018-09-19T22:46:18.705Z,21.67
2018-09-19T22:48:48.069Z,21.61
2018-09-19T22:51:16.244Z,21.52
2018-09-19T22:57:30.081Z,21.24
2018-09-19T23:03:22.257Z,20.97
2018-09-19T23:05:52.806Z,20.93
2018-09-19T23:08:28.932Z,20.91
2018-09-19T23:11:01.005Z,20.91
2018-09-19T23:13:29.449Z,20.87
2018-09-19T23:15:58.216Z,20.77
2018-09-19T23:18:26.744Z,20.71
2018-09-19T23:20:55.496Z,20.67
2018-09-19T23:23:23.952Z,20.66
2018-09-19T23:25:52.441Z,20.64
2018-09-19T23:31:47.811Z,20.61
2018-09-19T23:34:16.155Z,20.59
2018-09-19T23:36:44.657Z,20.57
2018-09-19T23:39:13.168Z,20.52
2018-09-19T23:41:41.666Z,20.45
2018-09-19T23:44:09.847Z,20.43
2018-09-19T23:46:38.017Z,20.41
2018-09-19T23:49:06.660Z,20.43
2018-09-19T23:51:35.131Z,20.44
2018-09-19T23:54:03.343Z,20.40
2018-09-19T23:56:31.685Z,20.34
2018-09-19T23:59:00.236Z,20.29
